createdAt,value
2023-03-30T00:08:44.039Z,5.1
2023-03-30T00:18:45.116Z,5.1
2023-03-30T00:28:45.528Z,5.1
2023-03-30T00:38:46.596Z,4.9
2023-03-30T00:48:47.895Z,5.4
2023-03-30T00:58:48.785Z,5
2023-03-30T01:08:49.670Z,4.8
2023-03-30T01:18:50.544Z,4.6
2023-03-30T01:28:51.542Z,5.3
2023-03-30T01:38:52.726Z,5.4
2023-03-30T01:48:53.124Z,4.7
2023-03-30T01:58:53.798Z,4.5
2023-03-30T02:08:54.472Z,4.5
2023-03-30T02:18:55.161Z,4.7
2023-03-30T02:28:55.917Z,4.9
2023-03-30T02:38:56.485Z,4.5
2023-03-30T02:48:57.113Z,4.6
2023-03-30T02:58:57.705Z,4.4
2023-03-30T03:08:06.776Z,4.8
2023-03-30T03:18:05.608Z,4.8
2023-03-30T03:28:06.353Z,5.1
2023-03-30T03:38:06.093Z,4.5
2023-03-30T03:48:05.941Z,4.4
2023-03-30T03:58:05.785Z,4.8
2023-03-30T04:08:06.805Z,4.9
2023-03-30T04:18:07.684Z,4.8
2023-03-30T04:28:08.556Z,4.8
2023-03-30T04:38:09.335Z,5
2023-03-30T04:48:10.296Z,5.4
2023-03-30T04:58:10.793Z,5.1
2023-03-30T05:08:10.332Z,5.1
2023-03-30T05:18:09.418Z,5.3
2023-03-30T05:28:09.502Z,5.6
2023-03-30T05:38:09.091Z,5.4
2023-03-30T05:48:08.824Z,5.6
2023-03-30T05:58:08.531Z,6.3
2023-03-30T06:08:08.375Z,5.7
2023-03-30T06:18:07.845Z,5.7
2023-03-30T06:28:07.568Z,5.9
2023-03-30T06:38:07.354Z,5.6
2023-03-30T06:48:07.570Z,5.8
2023-03-30T06:58:07.556Z,6.7
2023-03-30T07:08:09.837Z,1.1
2023-03-30T07:18:20.483Z,-2.9
2023-03-30T07:28:33.736Z,4.1
2023-03-30T07:38:48.789Z,0.3
2023-03-30T07:49:05.002Z,-0.1
2023-03-30T07:59:21.662Z,0.5
2023-03-30T08:14:40.527Z,2
2023-03-30T08:24:56.847Z,0.4
2023-03-30T08:35:11.019Z,12.8
2023-03-30T08:45:20.963Z,5.4
2023-03-30T08:55:32.763Z,13.1
2023-03-30T09:08:18.089Z,13.9
2023-03-30T09:18:34.066Z,18.4
2023-03-30T09:28:45.281Z,17.4
2023-03-30T09:38:53.103Z,14.7
2023-03-30T09:49:01.777Z,10
2023-03-30T09:59:10.662Z,13.7
2023-03-30T10:09:19.823Z,9.8
2023-03-30T10:19:29.224Z,7.4
2023-03-30T10:29:39.062Z,6.2
2023-03-30T10:39:47.151Z,6.6
2023-03-30T10:49:56.569Z,5.8
2023-03-30T11:00:06.874Z,4.9
2023-03-30T11:16:44.758Z,7.2
2023-03-30T11:26:51.752Z,4.2
2023-03-30T11:36:58.795Z,3.7
2023-03-30T11:47:05.170Z,5.7
2023-03-30T11:57:10.213Z,12.4
2023-03-30T12:07:19.196Z,14.3
2023-03-30T12:17:29.949Z,17.7
2023-03-30T12:27:40.279Z,11.3
2023-03-30T12:37:46.085Z,15.4
2023-03-30T12:47:48.901Z,16
2023-03-30T12:57:51.234Z,13.1
2023-03-30T13:07:57.046Z,14.1
2023-03-30T13:17:59.630Z,14.6
2023-03-30T13:28:00.825Z,11.1
2023-03-30T13:38:02.648Z,11.5
2023-03-30T13:48:02.296Z,15.2
2023-03-30T13:58:01.711Z,15.4
2023-03-30T14:08:01.906Z,10.7
2023-03-30T14:18:01.638Z,14.6
2023-03-30T14:28:02.005Z,12.8
2023-03-30T14:38:10.301Z,13.5
2023-03-30T14:48:00.721Z,13.2
2023-03-30T14:58:00.656Z,10.8
2023-03-30T15:08:08.011Z,13.8
2023-03-30T15:18:08.007Z,13.4
2023-03-30T15:28:07.357Z,12.8
2023-03-30T15:38:06.366Z,12
2023-03-30T15:48:05.595Z,11.6
2023-03-30T15:58:04.771Z,12
2023-03-30T16:08:05.975Z,12.6
2023-03-30T16:18:07.649Z,11.8
2023-03-30T16:28:08.569Z,12.1
2023-03-30T16:38:09.924Z,12.4
2023-03-30T16:48:11.172Z,11.4
2023-03-30T16:58:12.158Z,11.5
2023-03-30T17:08:11.674Z,11.8
2023-03-30T17:18:11.085Z,11.9
2023-03-30T17:28:10.936Z,11.8
2023-03-30T17:38:11.405Z,11.8
2023-03-30T17:48:10.944Z,11.4
2023-03-30T17:58:10.752Z,11.4
2023-03-30T18:08:10.828Z,11.5
2023-03-30T18:18:10.438Z,11.1
2023-03-30T18:28:10.143Z,11
2023-03-30T18:38:09.925Z,11.2
2023-03-30T18:48:10.000Z,10.9
2023-03-30T18:58:09.545Z,10.8
2023-03-30T19:08:08.870Z,11
2023-03-30T19:18:09.432Z,11.1
2023-03-30T19:28:09.010Z,10.9
2023-03-30T19:38:09.182Z,11.3
2023-03-30T19:48:08.740Z,10.8
2023-03-30T19:58:08.594Z,10.9
2023-03-30T20:08:21.167Z,10.7
2023-03-30T20:18:08.491Z,10.5
2023-03-30T20:28:07.869Z,10.8
2023-03-30T20:38:07.950Z,10.4
2023-03-30T20:48:07.635Z,10.4
2023-03-30T20:58:07.507Z,10.3
2023-03-30T21:08:09.695Z,9.4
2023-03-30T21:18:10.927Z,9.5
2023-03-30T21:28:10.759Z,9.6
2023-03-30T21:38:11.264Z,9.7
2023-03-30T21:48:11.793Z,9.6
2023-03-30T21:58:12.517Z,9.2
2023-03-30T22:08:14.083Z,9
2023-03-30T22:18:15.869Z,8.4
2023-03-30T22:28:17.848Z,8.5
2023-03-30T22:38:19.608Z,8.6
2023-03-30T22:48:21.272Z,7.8
2023-03-30T22:58:23.263Z,8.2
2023-03-30T23:08:23.741Z,7.7
2023-03-30T23:18:24.485Z,7.6
2023-03-30T23:28:24.852Z,7.8
2023-03-30T23:38:25.536Z,7.6
2023-03-30T23:48:26.111Z,7.8
2023-03-30T23:58:27.314Z,7.6
